createdAt,value
2022-11-03T00:01:53.048Z,4.57
2022-11-03T00:04:24.981Z,4.23
2022-11-03T00:06:56.917Z,4.50
2022-11-03T00:09:27.885Z,4.40
2022-11-03T00:11:59.077Z,3.70
2022-11-03T00:14:30.771Z,3.73
2022-11-03T00:17:01.321Z,3.97
2022-11-03T00:19:31.976Z,4.10
2022-11-03T00:22:02.516Z,4.50
2022-11-03T00:24:33.077Z,4.60
2022-11-03T00:27:03.739Z,4.33
2022-11-03T00:29:34.281Z,4.13
2022-11-03T00:32:04.816Z,4.20
2022-11-03T00:34:35.442Z,4.13
2022-11-03T00:37:05.966Z,4.17
2022-11-03T00:39:36.758Z,4.30
2022-11-03T00:42:07.576Z,4.07
2022-11-03T00:44:38.187Z,3.77
2022-11-03T00:47:08.836Z,4.80
2022-11-03T00:49:39.388Z,4.50
2022-11-03T00:52:09.921Z,5.97
2022-11-03T00:54:44.793Z,4.00
2022-11-03T00:57:13.448Z,4.97
2022-11-03T00:59:44.062Z,4.70
2022-11-03T01:02:14.678Z,4.50
2022-11-03T01:05:02.989Z,5.53
2022-11-03T01:07:33.497Z,3.93
2022-11-03T01:10:04.181Z,4.70
2022-11-03T01:12:34.763Z,4.20
2022-11-03T01:15:05.861Z,3.80
2022-11-03T01:17:36.443Z,4.40
2022-11-03T01:20:08.503Z,4.03
2022-11-03T01:22:39.010Z,4.03
2022-11-03T01:25:10.871Z,4.00
2022-11-03T01:27:41.469Z,3.63
2022-11-03T01:30:13.822Z,3.90
2022-11-03T01:32:44.388Z,4.23
2022-11-03T01:35:15.170Z,3.40
2022-11-03T01:37:45.707Z,3.57
2022-11-03T01:40:16.300Z,3.20
2022-11-03T01:42:46.847Z,3.93
2022-11-03T01:45:17.694Z,4.23
2022-11-03T01:47:49.364Z,3.80
2022-11-03T01:50:21.199Z,3.73
2022-11-03T01:52:54.708Z,3.30
2022-11-03T01:55:28.294Z,3.87
2022-11-03T01:58:01.563Z,3.97
2022-11-03T02:00:32.178Z,4.87
2022-11-03T02:03:03.499Z,5.07
2022-11-03T02:05:34.434Z,5.50
2022-11-03T02:10:40.235Z,5.57
2022-11-03T02:13:14.394Z,5.10
2022-11-03T02:15:45.857Z,4.50
2022-11-03T02:18:17.607Z,4.10
2022-11-03T02:20:51.072Z,5.53
2022-11-03T02:23:30.832Z,5.83
2022-11-03T02:26:02.610Z,5.00
2022-11-03T02:28:34.736Z,5.50
2022-11-03T02:31:10.803Z,5.83
2022-11-03T02:33:47.143Z,5.60
2022-11-03T02:36:22.508Z,5.73
2022-11-03T02:38:57.341Z,5.23
2022-11-03T02:41:29.984Z,5.33
2022-11-03T02:44:01.864Z,5.27
2022-11-03T02:46:33.839Z,5.80
2022-11-03T02:49:04.768Z,5.20
2022-11-03T02:51:35.610Z,5.30
2022-11-03T02:54:10.470Z,5.30
2022-11-03T02:56:44.415Z,4.40
2022-11-03T02:59:17.992Z,5.00
2022-11-03T03:01:52.755Z,5.17
2022-11-03T03:04:27.196Z,5.13
2022-11-03T03:07:01.917Z,4.87
2022-11-03T03:09:35.424Z,5.37
2022-11-03T03:12:08.193Z,6.57
2022-11-03T03:14:42.188Z,5.60
2022-11-03T03:17:16.423Z,5.83
2022-11-03T03:19:51.085Z,5.63
2022-11-03T03:22:26.364Z,5.13
2022-11-03T03:25:00.042Z,6.63
2022-11-03T03:27:32.926Z,6.80
2022-11-03T03:30:06.618Z,7.77
2022-11-03T03:32:39.989Z,9.23
2022-11-03T03:35:14.389Z,8.47
2022-11-03T03:37:47.387Z,6.00
2022-11-03T03:40:22.455Z,5.47
2022-11-03T03:42:54.531Z,5.40
2022-11-03T03:45:27.877Z,4.90
2022-11-03T03:47:58.523Z,7.43
2022-11-03T03:50:32.430Z,5.87
2022-11-03T03:53:04.424Z,5.73
2022-11-03T03:55:37.986Z,6.40
2022-11-03T03:58:09.691Z,5.80
2022-11-03T04:00:42.639Z,11.80
2022-11-03T04:03:17.690Z,11.43
2022-11-03T04:05:48.671Z,10.17
2022-11-03T04:08:19.710Z,12.27
2022-11-03T04:11:09.141Z,10.53
2022-11-03T04:13:57.145Z,13.93
2022-11-03T04:16:45.630Z,10.83
2022-11-03T04:19:53.281Z,10.30
2022-11-03T04:25:02.206Z,8.60
2022-11-03T04:27:34.951Z,9.03
2022-11-03T04:30:17.173Z,9.70
2022-11-03T04:32:49.731Z,9.03
2022-11-03T04:35:23.965Z,9.03
2022-11-03T04:37:58.029Z,9.27
2022-11-03T04:40:28.766Z,9.07
2022-11-03T04:43:00.425Z,8.97
2022-11-03T04:45:34.882Z,7.60
2022-11-03T04:48:10.138Z,7.43
2022-11-03T04:50:46.428Z,10.07
2022-11-03T04:53:15.744Z,8.87
2022-11-03T04:55:47.706Z,11.43
2022-11-03T04:58:21.948Z,7.57
2022-11-03T05:00:55.238Z,7.47
2022-11-03T05:03:27.328Z,8.63
2022-11-03T05:05:58.678Z,7.63
2022-11-03T05:08:29.338Z,8.67
2022-11-03T05:11:01.127Z,6.83
2022-11-03T05:13:31.777Z,7.23
2022-11-03T05:16:05.052Z,7.83
2022-11-03T05:18:38.754Z,8.73
2022-11-03T05:21:12.255Z,7.20
2022-11-03T05:23:45.668Z,9.40
2022-11-03T05:26:19.710Z,8.20
2022-11-03T05:28:53.743Z,9.33
2022-11-03T05:31:29.748Z,10.30
2022-11-03T05:34:02.880Z,12.20
2022-11-03T05:36:34.859Z,11.77
2022-11-03T05:39:13.409Z,9.27
2022-11-03T05:41:44.288Z,10.63
2022-11-03T05:46:56.916Z,23.60
2022-11-03T05:49:28.626Z,10.43
2022-11-03T05:51:59.417Z,20.30
2022-11-03T05:54:32.961Z,14.40
2022-11-03T05:57:05.508Z,12.47
2022-11-03T05:59:36.125Z,11.63
2022-11-03T06:02:12.489Z,8.33
2022-11-03T06:04:43.570Z,8.83
2022-11-03T06:10:25.618Z,7.63
2022-11-03T06:13:00.441Z,12.10
2022-11-03T06:15:34.220Z,8.77
2022-11-03T06:18:13.403Z,10.90
2022-11-03T06:20:45.941Z,8.30
2022-11-03T06:23:19.683Z,9.13
2022-11-03T06:25:53.007Z,10.07
2022-11-03T06:28:26.949Z,18.43
2022-11-03T06:30:57.851Z,11.33
2022-11-03T06:33:32.367Z,11.53
2022-11-03T06:36:05.234Z,8.87
2022-11-03T06:38:37.430Z,9.97
2022-11-03T06:41:11.364Z,9.43
2022-11-03T06:43:47.197Z,10.27
2022-11-03T06:46:22.273Z,10.77
2022-11-03T06:48:54.944Z,7.33
2022-11-03T06:51:28.481Z,7.43
2022-11-03T06:54:01.618Z,7.50
2022-11-03T06:59:15.682Z,7.27
2022-11-03T07:01:50.231Z,12.27
2022-11-03T07:04:24.011Z,7.83
2022-11-03T07:06:54.659Z,7.83
2022-11-03T07:09:27.165Z,7.70
2022-11-03T07:11:59.542Z,8.17
2022-11-03T07:14:32.538Z,7.43
2022-11-03T07:17:06.189Z,7.73
2022-11-03T07:19:39.367Z,8.67
2022-11-03T07:22:14.555Z,12.27
2022-11-03T07:24:48.210Z,8.27
2022-11-03T07:27:22.250Z,7.80
2022-11-03T07:29:54.410Z,6.30
2022-11-03T07:32:28.046Z,7.37
2022-11-03T07:35:01.747Z,6.97
2022-11-03T07:37:32.280Z,8.93
2022-11-03T07:40:02.966Z,7.07
2022-11-03T07:42:35.070Z,7.80
2022-11-03T07:45:13.033Z,6.80
2022-11-03T07:47:45.347Z,5.80
2022-11-03T07:50:18.668Z,7.93
2022-11-03T07:52:49.349Z,8.40
2022-11-03T07:55:20.222Z,7.50
2022-11-03T07:57:50.904Z,7.23
2022-11-03T08:00:23.014Z,6.57
2022-11-03T08:02:56.507Z,6.77
2022-11-03T08:05:28.074Z,7.13
2022-11-03T08:07:58.616Z,6.73
2022-11-03T08:10:29.176Z,6.43
2022-11-03T08:15:39.546Z,7.30
2022-11-03T08:18:10.116Z,7.67
2022-11-03T08:20:40.656Z,6.80
2022-11-03T08:23:25.123Z,7.13
2022-11-03T08:25:44.439Z,6.70
2022-11-03T08:28:14.966Z,6.63
2022-11-03T08:30:45.535Z,6.23
2022-11-03T08:33:16.105Z,6.80
2022-11-03T08:35:46.714Z,7.37
2022-11-03T08:38:17.296Z,6.20
2022-11-03T08:40:51.369Z,6.00
2022-11-03T08:43:20.025Z,7.33
2022-11-03T08:45:53.451Z,5.40
2022-11-03T08:48:26.688Z,6.57
2022-11-03T08:50:57.968Z,7.23
2022-11-03T08:53:28.973Z,8.60
2022-11-03T08:55:59.536Z,16.50
2022-11-03T08:58:30.218Z,8.13
2022-11-03T09:01:00.909Z,7.87
2022-11-03T09:03:31.599Z,9.30
2022-11-03T09:06:02.163Z,12.57
2022-11-03T09:11:04.938Z,14.13
2022-11-03T09:13:35.664Z,12.23
2022-11-03T09:16:06.856Z,8.77
2022-11-03T09:18:37.583Z,8.60
2022-11-03T09:21:08.981Z,8.77
2022-11-03T09:23:39.562Z,8.90
2022-11-03T09:26:10.138Z,8.30
2022-11-03T09:28:40.727Z,7.97
2022-11-03T09:31:11.307Z,7.93
2022-11-03T09:33:41.920Z,7.27
2022-11-03T09:36:12.838Z,7.47
2022-11-03T09:38:43.402Z,6.50
2022-11-03T09:41:26.749Z,5.83
2022-11-03T09:43:50.168Z,5.30
2022-11-03T09:46:21.731Z,6.73
2022-11-03T09:48:52.682Z,4.17
2022-11-03T09:51:25.043Z,7.70
2022-11-03T09:53:57.444Z,8.50
2022-11-03T09:56:28.484Z,11.03
2022-11-03T09:59:00.510Z,10.30
2022-11-03T10:01:51.340Z,24.33
2022-11-03T10:04:25.312Z,14.97
2022-11-03T10:06:57.198Z,10.97
2022-11-03T10:09:30.391Z,11.87
2022-11-03T10:12:01.091Z,16.77
2022-11-03T10:14:32.322Z,18.23
2022-11-03T10:17:03.161Z,17.30
2022-11-03T10:19:34.116Z,17.40
2022-11-03T10:22:04.756Z,16.10
2022-11-03T10:24:36.209Z,15.13
2022-11-03T10:27:08.555Z,12.77
2022-11-03T10:29:40.156Z,12.27
2022-11-03T10:32:17.188Z,11.27
2022-11-03T10:34:47.847Z,8.10
2022-11-03T10:37:21.785Z,7.27
2022-11-03T10:39:54.100Z,6.77
2022-11-03T10:42:30.492Z,5.20
2022-11-03T10:45:12.054Z,3.67
2022-11-03T10:47:42.631Z,4.37
2022-11-03T10:50:23.487Z,3.93
2022-11-03T10:52:54.468Z,5.53
2022-11-03T10:55:26.834Z,10.63
2022-11-03T10:57:59.524Z,10.07
2022-11-03T11:00:30.116Z,8.30
2022-11-03T11:03:02.762Z,7.37
2022-11-03T11:05:33.796Z,10.10
2022-11-03T11:08:04.521Z,8.70
2022-11-03T11:10:35.247Z,9.00
2022-11-03T11:13:35.056Z,9.63
2022-11-03T11:16:07.297Z,8.70
2022-11-03T11:19:04.370Z,8.47
2022-11-03T11:21:57.415Z,7.80
2022-11-03T11:28:00.344Z,7.17
2022-11-03T11:31:05.562Z,7.73
2022-11-03T11:33:36.234Z,7.13
2022-11-03T11:36:26.088Z,7.27
2022-11-03T11:39:01.494Z,6.63
2022-11-03T11:42:09.596Z,6.50
2022-11-03T11:44:53.170Z,6.90
2022-11-03T11:47:36.495Z,6.27
2022-11-03T11:50:43.378Z,8.40
2022-11-03T11:53:29.017Z,7.53
2022-11-03T11:55:58.265Z,7.43
2022-11-03T11:58:38.556Z,7.50
2022-11-03T12:01:23.047Z,7.63
2022-11-03T12:03:56.222Z,6.77
2022-11-03T12:06:37.074Z,4.50
2022-11-03T12:09:10.325Z,4.83
2022-11-03T12:11:46.388Z,5.10
2022-11-03T12:14:26.422Z,4.60
2022-11-03T12:16:57.888Z,4.77
2022-11-03T12:19:40.291Z,4.00
2022-11-03T12:22:16.467Z,4.50
2022-11-03T12:24:52.920Z,4.10
2022-11-03T12:27:44.400Z,4.77
2022-11-03T12:30:20.433Z,7.33
2022-11-03T12:32:52.208Z,5.37
2022-11-03T12:35:22.827Z,4.37
2022-11-03T12:37:53.428Z,4.57
2022-11-03T12:40:23.954Z,5.63
2022-11-03T12:42:54.483Z,6.23
2022-11-03T12:45:25.078Z,4.93
2022-11-03T12:47:55.603Z,5.03
2022-11-03T12:50:26.163Z,4.20
2022-11-03T12:52:56.705Z,4.40
2022-11-03T12:57:58.879Z,4.90
2022-11-03T13:00:29.417Z,5.33
2022-11-03T13:02:59.955Z,4.23
2022-11-03T13:05:30.744Z,5.00
2022-11-03T13:08:01.307Z,4.37
2022-11-03T13:10:31.885Z,4.13
2022-11-03T13:13:02.452Z,3.97
2022-11-03T13:15:53.281Z,4.00
2022-11-03T13:18:24.416Z,4.30
2022-11-03T13:20:54.967Z,5.60
2022-11-03T13:23:25.643Z,5.30
2022-11-03T13:25:56.254Z,5.37
2022-11-03T13:28:26.865Z,7.37
2022-11-03T13:30:57.415Z,5.57
2022-11-03T13:33:27.994Z,5.33
2022-11-03T13:35:58.661Z,5.30
2022-11-03T13:38:29.463Z,4.50
2022-11-03T13:41:05.313Z,5.27
2022-11-03T13:43:32.261Z,5.43
2022-11-03T13:46:04.218Z,6.80
2022-11-03T13:49:33.152Z,4.70
2022-11-03T13:51:09.020Z,4.60
2022-11-03T13:56:19.307Z,4.80
2022-11-03T14:01:16.625Z,4.90
2022-11-03T14:06:19.639Z,4.13
2022-11-03T14:08:50.182Z,3.93
2022-11-03T14:11:38.307Z,4.17
2022-11-03T14:14:08.868Z,3.77
2022-11-03T14:16:39.503Z,4.33
2022-11-03T14:19:10.389Z,4.80
2022-11-03T14:21:43.186Z,5.23
2022-11-03T14:24:13.806Z,5.03
2022-11-03T14:26:44.390Z,4.93
2022-11-03T14:29:33.761Z,6.37
2022-11-03T14:32:04.525Z,6.10
2022-11-03T14:34:35.243Z,5.80
2022-11-03T14:37:06.151Z,6.07
2022-11-03T14:39:37.410Z,6.20
2022-11-03T14:42:11.660Z,5.50
2022-11-03T14:44:43.103Z,6.70
2022-11-03T14:47:15.232Z,5.60
2022-11-03T14:49:46.006Z,5.67
2022-11-03T14:52:17.256Z,5.77
2022-11-03T14:54:48.451Z,5.83
2022-11-03T14:57:19.032Z,6.40
2022-11-03T15:00:11.339Z,6.57
2022-11-03T15:02:42.014Z,6.27
2022-11-03T15:05:14.513Z,6.90
2022-11-03T15:07:45.089Z,7.37
2022-11-03T15:10:15.739Z,7.10
2022-11-03T15:12:46.356Z,6.50
2022-11-03T15:15:17.077Z,7.07
2022-11-03T15:17:47.732Z,6.50
2022-11-03T15:20:18.644Z,6.80
2022-11-03T15:25:26.156Z,7.40
2022-11-03T15:27:53.613Z,8.33
2022-11-03T15:30:24.298Z,6.93
2022-11-03T15:32:56.587Z,7.30
2022-11-03T15:35:27.662Z,7.30
2022-11-03T15:37:59.306Z,6.83
2022-11-03T15:40:29.990Z,6.60
2022-11-03T15:43:03.078Z,6.63
2022-11-03T15:45:33.073Z,7.17
2022-11-03T15:48:03.922Z,6.57
2022-11-03T15:53:13.805Z,7.60
2022-11-03T15:55:44.411Z,7.17
2022-11-03T15:58:34.736Z,7.57
2022-11-03T16:01:05.470Z,6.77
2022-11-03T16:03:36.410Z,7.10
2022-11-03T16:06:07.555Z,8.03
2022-11-03T16:08:38.344Z,8.57
2022-11-03T16:11:09.336Z,7.93
2022-11-03T16:13:40.222Z,7.23
2022-11-03T16:16:11.146Z,7.50
2022-11-03T16:18:42.808Z,6.93
2022-11-03T16:21:13.536Z,7.93
2022-11-03T16:23:44.245Z,7.67
2022-11-03T16:26:15.046Z,7.87
2022-11-03T16:28:46.116Z,8.60
2022-11-03T16:31:16.903Z,7.47
2022-11-03T16:33:47.715Z,8.37
2022-11-03T16:36:19.026Z,8.50
2022-11-03T16:38:49.873Z,9.03
2022-11-03T16:41:20.511Z,10.40
2022-11-03T16:43:51.586Z,10.33
2022-11-03T16:46:23.123Z,10.23
2022-11-03T16:48:53.753Z,8.90
2022-11-03T16:51:24.437Z,9.43
2022-11-03T16:53:56.835Z,9.87
2022-11-03T16:56:27.393Z,9.60
2022-11-03T16:58:58.399Z,8.87
2022-11-03T17:01:29.666Z,9.67
2022-11-03T17:04:00.560Z,9.43
2022-11-03T17:06:31.220Z,10.60
2022-11-03T17:09:02.376Z,11.07
2022-11-03T17:11:39.694Z,10.87
2022-11-03T17:14:13.737Z,10.23
2022-11-03T17:16:47.004Z,10.07
2022-11-03T17:19:18.213Z,11.67
2022-11-03T17:21:48.725Z,14.23
2022-11-03T17:24:19.535Z,12.10
2022-11-03T17:29:36.499Z,9.33
2022-11-03T17:32:09.765Z,10.00
2022-11-03T17:34:40.867Z,9.20
2022-11-03T17:37:11.746Z,8.87
2022-11-03T17:39:42.518Z,10.13
2022-11-03T17:42:24.917Z,9.97
2022-11-03T17:44:58.017Z,10.07
2022-11-03T17:47:29.149Z,9.60
2022-11-03T17:50:00.447Z,9.70
2022-11-03T17:52:33.010Z,9.60
2022-11-03T17:55:08.027Z,10.93
2022-11-03T17:57:38.765Z,12.37
2022-11-03T18:00:14.739Z,12.53
2022-11-03T18:02:45.716Z,13.63
2022-11-03T18:05:23.529Z,14.20
2022-11-03T18:07:55.025Z,13.70
2022-11-03T18:10:27.688Z,15.40
2022-11-03T18:13:19.566Z,13.20
2022-11-03T18:15:52.538Z,15.87
2022-11-03T18:18:27.919Z,13.63
2022-11-03T18:20:59.194Z,15.67
2022-11-03T18:23:32.569Z,11.80
2022-11-03T18:26:04.509Z,12.20
2022-11-03T18:28:35.200Z,10.93
2022-11-03T18:31:07.438Z,11.43
2022-11-03T18:33:38.972Z,11.70
2022-11-03T18:36:12.730Z,10.13
2022-11-03T18:38:45.457Z,10.13
2022-11-03T18:41:39.896Z,10.13
2022-11-03T18:44:17.341Z,10.10
2022-11-03T18:46:49.012Z,8.70
2022-11-03T18:49:20.349Z,9.07
2022-11-03T18:51:59.160Z,9.70
2022-11-03T18:54:28.412Z,9.80
2022-11-03T18:56:59.356Z,9.07
2022-11-03T18:59:32.300Z,9.13
2022-11-03T19:02:03.243Z,9.00
2022-11-03T19:04:34.064Z,8.60
2022-11-03T19:07:06.240Z,8.70
2022-11-03T19:09:36.934Z,9.80
2022-11-03T19:12:09.692Z,14.47
2022-11-03T19:14:43.050Z,18.23
2022-11-03T19:17:22.906Z,14.23
2022-11-03T19:19:49.817Z,15.53
2022-11-03T19:22:22.470Z,18.37
2022-11-03T19:24:53.149Z,15.80
2022-11-03T19:27:26.700Z,15.07
2022-11-03T19:29:58.736Z,12.50
2022-11-03T19:32:32.558Z,9.57
2022-11-03T19:35:07.028Z,8.87
2022-11-03T19:37:37.984Z,8.90
2022-11-03T19:40:11.743Z,9.90
2022-11-03T19:42:42.452Z,9.00
2022-11-03T19:45:16.616Z,10.23
2022-11-03T19:48:18.314Z,10.50
2022-11-03T19:50:25.296Z,10.57
2022-11-03T19:53:00.948Z,10.30
2022-11-03T19:55:34.052Z,11.10
2022-11-03T19:58:08.776Z,10.40
2022-11-03T20:00:39.855Z,10.57
2022-11-03T20:03:10.447Z,11.07
2022-11-03T20:05:45.135Z,10.70
2022-11-03T20:08:18.485Z,12.07
2022-11-03T20:10:49.178Z,11.10
2022-11-03T20:13:23.322Z,12.37
2022-11-03T20:16:00.246Z,11.90
2022-11-03T20:18:27.657Z,13.27
2022-11-03T20:20:59.090Z,15.00
2022-11-03T20:23:31.685Z,15.70
2022-11-03T20:26:02.959Z,13.57
2022-11-03T20:28:37.512Z,15.67
2022-11-03T20:31:08.481Z,12.93
2022-11-03T20:33:40.232Z,12.50
2022-11-03T20:36:16.248Z,10.93
2022-11-03T20:38:50.052Z,11.07
2022-11-03T20:41:20.708Z,10.70
2022-11-03T20:43:53.191Z,10.67
2022-11-03T20:46:29.060Z,9.40
2022-11-03T20:48:59.664Z,6.97
2022-11-03T20:51:33.801Z,7.70
2022-11-03T20:54:08.277Z,7.33
2022-11-03T20:56:38.822Z,6.40
2022-11-03T20:59:11.162Z,5.73
2022-11-03T21:01:43.219Z,4.83
2022-11-03T21:04:17.322Z,4.63
2022-11-03T21:06:48.326Z,4.50
2022-11-03T21:09:20.462Z,4.37
2022-11-03T21:11:52.850Z,4.47
2022-11-03T21:14:26.076Z,4.07
2022-11-03T21:17:14.618Z,4.20
2022-11-03T21:20:01.973Z,3.70
2022-11-03T21:22:53.256Z,3.73
2022-11-03T21:25:13.300Z,3.63
2022-11-03T21:27:43.835Z,4.10
2022-11-03T21:30:16.879Z,3.03
2022-11-03T21:32:48.077Z,2.93
2022-11-03T21:35:20.856Z,2.60
2022-11-03T21:37:51.908Z,2.57
2022-11-03T21:40:22.517Z,2.80
2022-11-03T21:43:10.461Z,2.87
2022-11-03T21:45:41.146Z,2.50
2022-11-03T21:48:29.283Z,2.90
2022-11-03T21:51:03.311Z,2.10
2022-11-03T21:53:33.940Z,1.70
2022-11-03T21:56:04.617Z,2.30
2022-11-03T21:58:35.693Z,2.33
2022-11-03T22:01:07.360Z,1.87
2022-11-03T22:03:39.608Z,2.10
2022-11-03T22:06:11.565Z,2.47
2022-11-03T22:08:43.911Z,1.90
2022-11-03T22:14:01.550Z,2.50
2022-11-03T22:16:38.140Z,2.40
2022-11-03T22:19:28.889Z,1.80
2022-11-03T22:22:18.060Z,1.77
2022-11-03T22:25:06.136Z,2.03
2022-11-03T22:27:37.022Z,1.30
2022-11-03T22:30:27.393Z,1.10
2022-11-03T22:32:59.352Z,1.20
2022-11-03T22:35:47.732Z,1.00
2022-11-03T22:38:21.098Z,1.20
2022-11-03T22:41:09.315Z,1.20
2022-11-03T22:43:57.820Z,1.20
2022-11-03T22:46:28.342Z,1.00
2022-11-03T22:48:58.869Z,1.10
2022-11-03T22:51:29.457Z,1.13
2022-11-03T22:54:12.424Z,1.40
2022-11-03T22:56:43.111Z,1.30
2022-11-03T22:59:14.009Z,1.27
2022-11-03T23:01:44.623Z,1.40
2022-11-03T23:04:15.379Z,0.80
2022-11-03T23:06:45.988Z,0.87
2022-11-03T23:09:16.545Z,1.03
2022-11-03T23:11:47.070Z,1.30
2022-11-03T23:14:18.505Z,1.20
2022-11-03T23:16:49.129Z,1.10
2022-11-03T23:19:37.265Z,1.10
2022-11-03T23:22:07.821Z,1.20
2022-11-03T23:24:56.249Z,1.40
2022-11-03T23:27:26.788Z,1.13
2022-11-03T23:29:57.356Z,1.57
2022-11-03T23:32:27.944Z,1.60
2022-11-03T23:34:58.551Z,1.27
2022-11-03T23:37:29.150Z,1.20
2022-11-03T23:39:59.686Z,1.30
2022-11-03T23:42:30.189Z,1.20
2022-11-03T23:45:19.569Z,1.40
2022-11-03T23:48:07.818Z,1.60
2022-11-03T23:50:40.458Z,1.20
2022-11-03T23:53:10.978Z,1.43
2022-11-03T23:55:45.952Z,0.83
2022-11-03T23:58:19.511Z,0.70
